Time;durP1;ratioP1;P1;durP2;ratioP2;P2;SDS_P1;SDS_P2;PMS_P1;PMS_P2;Temp;Humidity;BMP_temperature;BMP_pressure;BME280_temperature;BME280_humidity;BME280_pressure;Samples;Min_cycle;Max_cycle;Signal;HPM_P1;HPM_P2
2023/06/21 00:00:27;;;;;;;0.40;0.40;;;23.20;71.90;;;;;;5017224;28;20034;-79
2023/06/21 00:02:52;;;;;;;0.57;0.57;;;23.20;71.80;;;;;;5000080;28;20038;-78
2023/06/21 00:05:18;;;;;;;0.40;0.40;;;23.20;71.50;;;;;;4999934;28;20504;-78
2023/06/21 00:07:44;;;;;;;0.57;0.57;;;23.20;71.60;;;;;;4998959;28;20037;-79
2023/06/21 00:10:10;;;;;;;0.50;0.50;;;23.20;71.70;;;;;;5000527;28;20113;-78
2023/06/21 00:12:36;;;;;;;0.68;0.68;;;23.20;71.50;;;;;;4961984;28;1100998;-78
2023/06/21 00:15:02;;;;;;;0.60;0.60;;;23.20;71.50;;;;;;5006133;28;20057;-78
2023/06/21 00:17:27;;;;;;;0.70;0.70;;;23.20;71.50;;;;;;4999365;28;20049;-78
2023/06/21 00:19:54;;;;;;;0.50;0.50;;;23.20;71.50;;;;;;5000626;28;20661;-78
2023/06/21 00:22:21;;;;;;;0.60;0.60;;;23.20;71.50;;;;;;5000697;28;20042;-79
2023/06/21 00:24:48;;;;;;;0.50;0.50;;;23.20;71.50;;;;;;5014927;28;20038;-78
2023/06/21 00:27:14;;;;;;;0.60;0.60;;;23.20;71.50;;;;;;5003117;28;20400;-78
2023/06/21 00:29:40;;;;;;;0.75;0.75;;;23.20;71.50;;;;;;5001554;28;20046;-78
2023/06/21 00:32:06;;;;;;;0.50;0.50;;;23.20;71.60;;;;;;5002242;28;20042;-78
2023/06/21 00:34:31;;;;;;;0.50;0.50;;;23.20;71.60;;;;;;5004299;28;20054;-79
2023/06/21 00:36:57;;;;;;;0.70;0.70;;;23.20;71.50;;;;;;4999830;28;20038;-78
2023/06/21 00:39:22;;;;;;;0.50;0.50;;;23.10;71.50;;;;;;5002560;28;20071;-78
2023/06/21 00:41:48;;;;;;;0.50;0.50;;;23.10;71.50;;;;;;5014140;28;20042;-78
2023/06/21 00:44:13;;;;;;;0.60;0.60;;;23.10;71.70;;;;;;5003659;28;20603;-78
2023/06/21 00:46:40;;;;;;;0.73;0.73;;;23.10;71.60;;;;;;5003498;28;20038;-78
2023/06/21 00:49:05;;;;;;;0.60;0.60;;;23.20;71.60;;;;;;5003560;28;20050;-78
2023/06/21 00:51:32;;;;;;;0.60;0.60;;;23.10;71.70;;;;;;5017355;28;20407;-78
2023/06/21 00:53:58;;;;;;;0.50;0.50;;;23.10;71.70;;;;;;5003865;28;20047;-79
2023/06/21 00:56:24;;;;;;;0.60;0.60;;;23.10;71.50;;;;;;5001841;28;20053;-79
2023/06/21 00:58:49;;;;;;;0.65;0.65;;;23.10;71.60;;;;;;5001408;28;20046;-78
2023/06/21 01:01:15;;;;;;;0.55;0.40;;;23.10;71.50;;;;;;5002772;28;20129;-79
2023/06/21 01:03:40;;;;;;;0.60;0.60;;;23.20;71.60;;;;;;5015908;28;20054;-78
2023/06/21 01:06:22;;;;;;;0.70;0.70;;;23.20;71.70;;;;;;5004951;28;20041;-78
2023/06/21 01:09:21;;;;;;;0.43;0.43;;;23.10;71.50;;;;;;5016859;28;20107;-79
2023/06/21 01:11:46;;;;;;;0.70;0.70;;;23.20;71.60;;;;;;5003324;28;20056;-78
2023/06/21 01:14:38;;;;;;;0.40;0.40;;;23.10;71.50;;;;;;5003029;28;21182;-78
2023/06/21 01:17:03;;;;;;;0.55;0.55;;;23.10;71.50;;;;;;4989123;28;20559;-78
2023/06/21 01:19:47;;;;;;;0.50;0.50;;;23.10;71.50;;;;;;4987869;28;20137;-78
2023/06/21 01:22:55;;;;;;;0.40;0.40;;;23.20;71.50;;;;;;5002973;28;20459;-78
2023/06/21 01:26:06;;;;;;;0.52;0.52;;;23.10;72.20;;;;;;4967733;28;20052;-78
2023/06/21 01:29:03;;;;;;;0.45;0.45;;;23.10;71.40;;;;;;5000593;28;20085;-78
2023/06/21 01:31:29;;;;;;;0.60;0.60;;;23.10;71.40;;;;;;4993749;28;20523;-78
2023/06/21 01:33:55;;;;;;;0.57;0.57;;;23.10;71.50;;;;;;4988676;28;20089;-79
2023/06/21 01:36:22;;;;;;;0.57;0.57;;;23.10;71.30;;;;;;4989299;28;20411;-79
2023/06/21 01:38:47;;;;;;;0.70;0.70;;;23.10;72.20;;;;;;4988725;28;20046;-78
2023/06/21 01:41:13;;;;;;;0.57;0.57;;;23.10;71.30;;;;;;4986567;28;20041;-78
2023/06/21 01:43:38;;;;;;;0.60;0.60;;;23.10;71.40;;;;;;5002366;28;20046;-78
2023/06/21 01:46:04;;;;;;;0.60;0.60;;;23.10;71.40;;;;;;4998229;28;20046;-78
2023/06/21 01:48:30;;;;;;;0.65;0.65;;;23.10;71.30;;;;;;5002907;28;20100;-79
2023/06/21 01:50:56;;;;;;;0.68;0.57;;;23.10;71.40;;;;;;5006717;28;20041;-78
2023/06/21 01:53:21;;;;;;;0.40;0.40;;;23.10;71.30;;;;;;5006540;28;20046;-79
2023/06/21 01:55:49;;;;;;;0.50;0.50;;;23.10;71.50;;;;;;5001551;28;20137;-79
2023/06/21 01:58:16;;;;;;;0.60;0.60;;;23.10;71.30;;;;;;5005415;28;20064;-78
2023/06/21 02:00:41;;;;;;;0.65;0.65;;;23.10;71.30;;;;;;5002676;28;20049;-78
2023/06/21 02:03:09;;;;;;;0.45;0.45;;;23.10;71.40;;;;;;5022995;28;20053;-78
2023/06/21 02:05:35;;;;;;;0.55;0.55;;;23.10;71.30;;;;;;5001765;28;20125;-78
2023/06/21 02:08:00;;;;;;;0.52;0.52;;;23.00;71.30;;;;;;5019167;28;20117;-78
2023/06/21 02:10:26;;;;;;;0.50;0.50;;;23.00;71.30;;;;;;5007425;28;20132;-79
2023/06/21 02:12:54;;;;;;;0.40;0.40;;;23.00;71.30;;;;;;5018589;28;20541;-78
2023/06/21 02:15:20;;;;;;;0.50;0.50;;;23.00;71.30;;;;;;5005981;28;20046;-78
2023/06/21 02:17:49;;;;;;;0.80;0.50;;;23.00;71.30;;;;;;5006005;28;20511;-78
2023/06/21 02:20:19;;;;;;;0.35;0.35;;;23.00;72.10;;;;;;5005748;28;20078;-78
2023/06/21 02:22:45;;;;;;;0.50;0.50;;;23.00;71.40;;;;;;4988611;28;20389;-79
2023/06/21 02:25:11;;;;;;;0.57;0.50;;;23.00;71.30;;;;;;5004704;28;20057;-79
2023/06/21 02:27:37;;;;;;;0.40;0.40;;;23.00;71.30;;;;;;5003867;28;20031;-79
2023/06/21 02:30:03;;;;;;;0.52;0.52;;;23.00;71.30;;;;;;5005211;28;20499;-78
2023/06/21 02:32:28;;;;;;;0.47;0.47;;;23.00;71.30;;;;;;5004637;28;20042;-78
2023/06/21 02:34:54;;;;;;;0.50;0.50;;;23.00;71.30;;;;;;5001241;28;20045;-78
2023/06/21 02:37:20;;;;;;;0.52;0.52;;;23.00;71.30;;;;;;5004920;28;20037;-78
2023/06/21 02:39:45;;;;;;;0.68;0.68;;;23.00;71.20;;;;;;5003336;28;20046;-78
2023/06/21 02:42:11;;;;;;;0.50;0.50;;;23.00;71.20;;;;;;5007190;28;20499;-78
2023/06/21 02:44:36;;;;;;;0.40;0.40;;;23.00;71.30;;;;;;5002690;28;20069;-78
2023/06/21 02:47:02;;;;;;;0.60;0.60;;;23.00;71.20;;;;;;5002761;28;20042;-78
2023/06/21 02:49:28;;;;;;;0.57;0.57;;;23.00;72.10;;;;;;5006723;28;20104;-78
2023/06/21 02:51:53;;;;;;;0.60;0.60;;;23.00;71.20;;;;;;5018026;28;20084;-78
2023/06/21 02:54:19;;;;;;;0.50;0.50;;;23.00;71.20;;;;;;5006835;28;20100;-78
2023/06/21 02:56:45;;;;;;;0.50;0.50;;;23.00;71.20;;;;;;5006125;28;20049;-78
2023/06/21 02:59:11;;;;;;;0.40;0.40;;;23.00;71.10;;;;;;5005056;28;20049;-78
2023/06/21 03:01:36;;;;;;;0.50;0.50;;;23.00;71.10;;;;;;5003073;28;20042;-78
2023/06/21 03:04:02;;;;;;;0.63;0.63;;;23.00;71.10;;;;;;5003053;28;20042;-78
2023/06/21 03:06:29;;;;;;;0.50;0.50;;;23.00;71.20;;;;;;5005680;28;20486;-79
2023/06/21 03:08:55;;;;;;;0.50;0.50;;;23.00;71.20;;;;;;5004728;28;20033;-78
2023/06/21 03:11:21;;;;;;;0.50;0.50;;;22.90;71.10;;;;;;5001116;28;20049;-78
2023/06/21 03:13:47;;;;;;;0.50;0.50;;;23.00;71.10;;;;;;5001652;28;20045;-78
2023/06/21 03:16:13;;;;;;;0.60;0.60;;;23.00;71.10;;;;;;5002835;28;20042;-78
2023/06/21 03:18:39;;;;;;;0.50;0.50;;;23.00;71.20;;;;;;5003150;28;20113;-78
2023/06/21 03:21:04;;;;;;;0.55;0.55;;;23.00;71.20;;;;;;5006240;28;20415;-78
2023/06/21 03:23:30;;;;;;;0.60;0.60;;;23.00;71.20;;;;;;5004941;28;20041;-79
2023/06/21 03:25:55;;;;;;;0.50;0.50;;;23.00;71.10;;;;;;5004752;28;20030;-78
2023/06/21 03:28:21;;;;;;;0.40;0.40;;;23.00;71.10;;;;;;5004814;28;20761;-79
2023/06/21 03:30:47;;;;;;;0.47;0.47;;;22.90;71.10;;;;;;5004910;28;20096;-78
2023/06/21 03:33:12;;;;;;;0.47;0.47;;;22.90;71.10;;;;;;5006531;28;20596;-78
2023/06/21 03:35:38;;;;;;;0.52;0.52;;;22.90;71.10;;;;;;5003385;28;20152;-78
2023/06/21 03:38:03;;;;;;;0.50;0.50;;;22.90;71.10;;;;;;5003318;28;20060;-79
2023/06/21 03:40:29;;;;;;;0.60;0.60;;;22.90;71.10;;;;;;5003904;28;20531;-78
2023/06/21 03:42:54;;;;;;;0.45;0.45;;;22.90;71.10;;;;;;5003090;28;20042;-78
2023/06/21 03:45:20;;;;;;;0.60;0.60;;;22.90;71.10;;;;;;5006089;28;20527;-79
2023/06/21 03:47:46;;;;;;;0.50;0.50;;;22.90;71.10;;;;;;5002689;28;20535;-78
2023/06/21 03:50:12;;;;;;;0.50;0.50;;;22.90;71.10;;;;;;5003573;28;20054;-78
2023/06/21 03:52:37;;;;;;;0.30;0.30;;;22.90;71.10;;;;;;5002387;28;20053;-79
2023/06/21 03:55:04;;;;;;;0.40;0.40;;;22.90;71.20;;;;;;5002351;28;20126;-78
2023/06/21 03:57:29;;;;;;;0.50;0.50;;;22.90;71.10;;;;;;5002177;28;20088;-78
2023/06/21 03:59:55;;;;;;;0.60;0.60;;;22.90;71.20;;;;;;5003133;28;20476;-79
2023/06/21 04:02:21;;;;;;;0.50;0.50;;;22.90;71.10;;;;;;5001732;28;20058;-78
2023/06/21 04:04:50;;;;;;;0.50;0.50;;;22.90;71.20;;;;;;5000644;28;20157;-77
2023/06/21 04:07:19;;;;;;;0.47;0.47;;;22.90;71.10;;;;;;5003018;28;20571;-78
2023/06/21 04:09:45;;;;;;;0.57;0.57;;;22.90;71.10;;;;;;5002260;28;20042;-78
2023/06/21 04:12:10;;;;;;;0.60;0.60;;;22.90;71.10;;;;;;5005569;28;20518;-79
2023/06/21 04:14:36;;;;;;;0.40;0.40;;;22.90;71.10;;;;;;5004920;28;20145;-79
2023/06/21 04:17:02;;;;;;;0.40;0.40;;;22.90;71.10;;;;;;5001639;28;20120;-77
2023/06/21 04:19:28;;;;;;;0.50;0.50;;;22.90;71.10;;;;;;5004580;28;20045;-79
2023/06/21 04:21:54;;;;;;;0.60;0.60;;;22.90;71.10;;;;;;5002860;28;20038;-78
2023/06/21 04:24:19;;;;;;;0.40;0.40;;;22.90;71.10;;;;;;5004827;28;20088;-78
2023/06/21 04:26:45;;;;;;;0.45;0.45;;;22.90;71.10;;;;;;5002309;28;20049;-78
2023/06/21 04:29:10;;;;;;;0.63;0.63;;;22.90;71.10;;;;;;5004532;28;20125;-78
2023/06/21 04:31:37;;;;;;;0.40;0.40;;;22.90;71.10;;;;;;5005114;28;20033;-79
2023/06/21 04:34:04;;;;;;;0.50;0.50;;;22.90;71.00;;;;;;5002352;28;20200;-78
2023/06/21 04:36:29;;;;;;;0.57;0.57;;;22.90;70.90;;;;;;5003370;28;20042;-78
2023/06/21 04:38:55;;;;;;;0.40;0.40;;;22.90;70.90;;;;;;5004498;28;20042;-78
2023/06/21 04:41:21;;;;;;;0.50;0.50;;;22.90;71.00;;;;;;5002935;28;20069;-78
2023/06/21 04:43:47;;;;;;;0.80;0.80;;;22.90;70.90;;;;;;5003689;28;20061;-78
2023/06/21 04:46:13;;;;;;;0.50;0.50;;;22.90;70.90;;;;;;4992954;28;20084;-78
2023/06/21 04:48:38;;;;;;;0.43;0.43;;;22.90;70.90;;;;;;5006742;28;20045;-78
2023/06/21 04:51:04;;;;;;;0.50;0.50;;;22.80;70.80;;;;;;5010432;28;20470;-78
2023/06/21 04:53:30;;;;;;;0.55;0.55;;;22.90;70.90;;;;;;5008135;28;20045;-78
2023/06/21 04:55:57;;;;;;;0.60;0.60;;;22.90;70.90;;;;;;5003561;28;20053;-78
2023/06/21 04:58:23;;;;;;;0.60;0.60;;;22.90;70.90;;;;;;5005654;28;20049;-78
2023/06/21 05:00:49;;;;;;;0.40;0.40;;;22.80;70.70;;;;;;5003571;28;20041;-77
2023/06/21 05:03:15;;;;;;;0.50;0.50;;;22.90;70.80;;;;;;5008554;28;20037;-78
2023/06/21 05:05:41;;;;;;;0.57;0.55;;;22.90;70.80;;;;;;5009908;28;20045;-78
2023/06/21 05:08:06;;;;;;;0.60;0.60;;;22.90;70.80;;;;;;5006614;28;20041;-78
2023/06/21 05:10:32;;;;;;;0.47;0.47;;;22.80;70.70;;;;;;5003339;28;20045;-78
2023/06/21 05:12:58;;;;;;;0.30;0.30;;;22.80;70.70;;;;;;5006414;28;20470;-78
2023/06/21 05:15:23;;;;;;;0.50;0.50;;;22.80;70.70;;;;;;5006545;28;20129;-78
2023/06/21 05:17:49;;;;;;;0.50;0.50;;;22.80;70.80;;;;;;5007005;28;20065;-78
2023/06/21 05:20:14;;;;;;;0.50;0.50;;;22.90;70.80;;;;;;5005999;28;20038;-78
2023/06/21 05:22:42;;;;;;;0.50;0.50;;;22.80;70.60;;;;;;5005518;28;20038;-78
2023/06/21 05:25:08;;;;;;;0.50;0.50;;;22.90;70.70;;;;;;5007187;28;20041;-79
2023/06/21 05:27:34;;;;;;;0.45;0.45;;;22.90;70.70;;;;;;5004475;28;20139;-78
2023/06/21 05:29:59;;;;;;;0.50;0.50;;;22.90;70.70;;;;;;5006654;28;20500;-78
2023/06/21 05:32:28;;;;;;;0.47;0.47;;;22.80;70.60;;;;;;5006550;28;20444;-78
2023/06/21 05:34:53;;;;;;;0.50;0.50;;;22.80;70.60;;;;;;5003791;28;20088;-79
2023/06/21 05:37:19;;;;;;;0.50;0.50;;;22.90;70.70;;;;;;5001176;28;20053;-78
2023/06/21 05:39:44;;;;;;;0.50;0.50;;;22.80;70.60;;;;;;5001640;28;20140;-78
2023/06/21 05:42:10;;;;;;;0.57;0.57;;;22.90;70.70;;;;;;5003672;28;20045;-78
2023/06/21 05:44:36;;;;;;;0.50;0.50;;;22.80;70.60;;;;;;5002456;28;20104;-78
2023/06/21 05:47:02;;;;;;;0.50;0.50;;;22.80;70.50;;;;;;5001593;28;20587;-78
2023/06/21 05:49:27;;;;;;;0.40;0.40;;;22.80;70.60;;;;;;5003107;28;20049;-78
2023/06/21 05:51:53;;;;;;;0.40;0.40;;;22.80;70.50;;;;;;5001904;28;20411;-79
2023/06/21 05:54:18;;;;;;;0.45;0.40;;;22.80;70.50;;;;;;5003203;28;20042;-78
2023/06/21 05:56:44;;;;;;;0.43;0.43;;;22.80;70.50;;;;;;5019185;28;20134;-78
2023/06/21 05:59:10;;;;;;;0.38;0.38;;;22.80;70.50;;;;;;5000185;28;20049;-78
2023/06/21 06:01:36;;;;;;;0.47;0.47;;;22.80;70.50;;;;;;4997335;28;20038;-78
2023/06/21 06:04:01;;;;;;;0.40;0.40;;;22.80;71.30;;;;;;4999839;28;20491;-78
2023/06/21 06:06:40;;;;;;;0.40;0.40;;;22.80;70.50;;;;;;5004516;28;20096;-78
2023/06/21 06:09:07;;;;;;;0.40;0.40;;;22.80;70.50;;;;;;5004392;28;20050;-78
2023/06/21 06:11:33;;;;;;;0.40;0.40;;;22.80;70.50;;;;;;5002627;28;20042;-78
2023/06/21 06:13:59;;;;;;;0.32;0.32;;;22.80;70.50;;;;;;5002667;28;20052;-77
2023/06/21 06:16:24;;;;;;;0.40;0.40;;;22.80;71.30;;;;;;5002655;28;20420;-78
2023/06/21 06:18:50;;;;;;;0.40;0.40;;;22.80;70.50;;;;;;5019649;28;20116;-78
2023/06/21 06:21:21;;;;;;;0.50;0.50;;;22.80;70.50;;;;;;5006645;28;20415;-78
2023/06/21 06:23:53;;;;;;;0.52;0.52;;;22.80;70.50;;;;;;5006511;28;20045;-78
2023/06/21 06:26:21;;;;;;;0.57;0.57;;;22.80;70.50;;;;;;5001840;28;20129;-78
2023/06/21 06:28:47;;;;;;;0.40;0.40;;;22.90;70.50;;;;;;5001928;28;20038;-78
2023/06/21 06:31:13;;;;;;;0.60;0.60;;;22.80;70.50;;;;;;5001789;28;20045;-78
2023/06/21 06:33:38;;;;;;;0.47;0.47;;;22.80;70.50;;;;;;5000542;28;20082;-78
2023/06/21 06:36:05;;;;;;;0.40;0.40;;;22.80;70.50;;;;;;5005296;28;20159;-79
2023/06/21 06:38:30;;;;;;;0.50;0.50;;;22.80;70.50;;;;;;5006172;28;20066;-79
2023/06/21 06:40:56;;;;;;;0.50;0.50;;;22.80;70.50;;;;;;5004548;28;20038;-77
2023/06/21 06:43:21;;;;;;;0.50;0.50;;;22.80;70.50;;;;;;5004965;28;20049;-78
2023/06/21 06:45:47;;;;;;;0.50;0.50;;;22.80;70.50;;;;;;5006124;28;20041;-78
2023/06/21 06:48:12;;;;;;;0.47;0.47;;;22.80;70.50;;;;;;5007159;28;20053;-77
2023/06/21 06:50:38;;;;;;;0.55;0.55;;;22.90;70.60;;;;;;5002591;28;20050;-78
2023/06/21 06:53:05;;;;;;;0.40;0.40;;;22.80;70.50;;;;;;5002407;28;20069;-78
2023/06/21 06:55:31;;;;;;;0.50;0.50;;;22.80;70.50;;;;;;5003007;28;20041;-78
2023/06/21 06:57:58;;;;;;;0.60;0.60;;;22.90;70.60;;;;;;5002036;28;20034;-78
2023/06/21 07:00:24;;;;;;;0.30;0.30;;;22.80;70.50;;;;;;5004753;28;20105;-78
2023/06/21 07:02:51;;;;;;;0.30;0.30;;;22.90;70.60;;;;;;5007515;28;20088;-78
2023/06/21 07:05:16;;;;;;;0.75;0.75;;;22.90;70.60;;;;;;5000221;28;20233;-78
2023/06/21 07:07:42;;;;;;;0.40;0.40;;;22.90;70.60;;;;;;5004010;28;20504;-78
2023/06/21 07:10:08;;;;;;;0.45;0.45;;;22.90;70.70;;;;;;5000833;28;20041;-78
2023/06/21 07:12:33;;;;;;;2.10;0.47;;;22.90;70.60;;;;;;5005110;28;20050;-77
2023/06/21 07:14:59;;;;;;;0.50;0.50;;;22.90;70.70;;;;;;5006350;28;20110;-78
2023/06/21 07:17:25;;;;;;;0.47;0.47;;;22.90;70.70;;;;;;5002189;28;20072;-78
2023/06/21 07:19:51;;;;;;;0.50;0.50;;;22.90;70.70;;;;;;5004312;28;20522;-78
2023/06/21 07:22:17;;;;;;;0.47;0.47;;;22.90;70.70;;;;;;5003218;28;20053;-77
2023/06/21 07:24:42;;;;;;;0.30;0.30;;;22.90;70.80;;;;;;5002555;28;20054;-78
2023/06/21 07:27:08;;;;;;;0.57;0.57;;;22.90;70.90;;;;;;5006152;28;20073;-78
2023/06/21 07:29:33;;;;;;;0.30;0.30;;;22.90;70.90;;;;;;5004913;28;20593;-78
2023/06/21 07:31:59;;;;;;;0.30;0.30;;;22.90;70.90;;;;;;5004719;28;20038;-77
2023/06/21 07:34:25;;;;;;;0.32;0.32;;;22.90;70.90;;;;;;5016552;28;20092;-78
2023/06/21 07:36:51;;;;;;;0.50;0.50;;;23.00;71.10;;;;;;5007811;28;20141;-78
2023/06/21 07:39:17;;;;;;;0.50;0.50;;;22.90;71.10;;;;;;5005870;28;20551;-78
2023/06/21 07:41:42;;;;;;;0.55;0.55;;;22.90;71.10;;;;;;5003478;28;20040;-79
2023/06/21 07:44:09;;;;;;;0.30;0.30;;;23.00;71.20;;;;;;5001005;28;20037;-78
2023/06/21 07:46:35;;;;;;;0.60;0.60;;;23.00;70.90;;;;;;4998652;28;20100;-78
2023/06/21 07:49:00;;;;;;;0.70;0.70;;;23.00;70.60;;;;;;5020751;28;20029;-77
2023/06/21 07:51:26;;;;;;;0.50;0.50;;;23.00;70.60;;;;;;5004441;28;20050;-78
2023/06/21 07:53:51;;;;;;;0.50;0.50;;;23.00;70.50;;;;;;5004754;28;20522;-78
2023/06/21 07:56:17;;;;;;;0.45;0.45;;;23.00;70.50;;;;;;5001808;28;20128;-78
2023/06/21 07:58:43;;;;;;;0.50;0.47;;;23.00;70.40;;;;;;5001286;28;20030;-78
2023/06/21 08:01:09;;;;;;;0.40;0.40;;;23.00;70.20;;;;;;5001734;28;20873;-78
2023/06/21 08:03:34;;;;;;;0.50;0.50;;;23.00;70.40;;;;;;5005106;28;20038;-78
2023/06/21 08:06:00;;;;;;;0.50;0.50;;;23.10;70.10;;;;;;5005712;28;20117;-77
2023/06/21 08:08:26;;;;;;;1.00;0.63;;;23.10;70.10;;;;;;5002380;28;20133;-78
2023/06/21 08:10:52;;;;;;;0.50;0.50;;;23.00;70.10;;;;;;5006143;28;20104;-79
2023/06/21 08:13:22;;;;;;;0.40;0.40;;;23.10;70.50;;;;;;4987846;28;20045;-78
2023/06/21 08:15:48;;;;;;;0.40;0.40;;;23.10;70.10;;;;;;5003888;28;20046;-79
2023/06/21 08:18:13;;;;;;;0.40;0.40;;;23.10;70.00;;;;;;5022033;28;20045;-78
2023/06/21 08:20:40;;;;;;;0.70;0.43;;;23.10;70.10;;;;;;5003986;28;20490;-78
2023/06/21 08:23:06;;;;;;;0.47;0.47;;;23.10;70.10;;;;;;4999873;28;20038;-77
2023/06/21 08:25:32;;;;;;;0.57;0.57;;;23.10;69.90;;;;;;5007032;28;20053;-78
2023/06/21 08:27:58;;;;;;;0.63;0.60;;;23.20;70.00;;;;;;5024859;28;20033;-78
2023/06/21 08:30:23;;;;;;;0.50;0.50;;;23.10;70.00;;;;;;5005274;28;20050;-78
2023/06/21 08:32:50;;;;;;;0.52;0.52;;;23.20;69.90;;;;;;4993561;28;20113;-78
2023/06/21 08:35:16;;;;;;;0.60;0.60;;;23.10;70.50;;;;;;4988662;28;20046;-78
2023/06/21 08:37:44;;;;;;;0.70;0.40;;;23.20;69.80;;;;;;5006935;28;20527;-78
2023/06/21 08:40:10;;;;;;;0.50;0.50;;;23.20;69.80;;;;;;5006183;28;20574;-78
2023/06/21 08:42:35;;;;;;;0.50;0.50;;;23.20;69.80;;;;;;5009023;28;20049;-78
2023/06/21 08:45:01;;;;;;;0.40;0.40;;;23.20;69.80;;;;;;5023054;28;20034;-78
2023/06/21 08:47:28;;;;;;;0.50;0.50;;;23.20;69.70;;;;;;5006436;28;20742;-78
2023/06/21 08:49:55;;;;;;;0.60;0.60;;;23.20;69.80;;;;;;5004546;28;20031;-78
2023/06/21 08:52:20;;;;;;;0.57;0.57;;;23.20;69.80;;;;;;5002199;28;20040;-78
2023/06/21 08:54:49;;;;;;;0.40;0.40;;;23.20;70.00;;;;;;5005176;28;20038;-78
2023/06/21 08:57:21;;;;;;;0.52;0.52;;;23.20;69.90;;;;;;5024038;28;20107;-78
2023/06/21 08:59:59;;;;;;;0.50;0.50;;;23.20;69.90;;;;;;5008183;28;20046;-78
2023/06/21 09:02:55;;;;;;;0.40;0.40;;;23.20;69.90;;;;;;5005999;28;20052;-78
2023/06/21 09:05:29;;;;;;;0.63;0.63;;;23.20;69.90;;;;;;5004700;28;20041;-78
2023/06/21 09:07:58;;;;;;;0.60;0.60;;;23.20;69.80;;;;;;5006956;28;20042;-78
2023/06/21 09:10:24;;;;;;;0.60;0.60;;;23.20;69.90;;;;;;5007261;28;20131;-78
2023/06/21 09:12:51;;;;;;;0.60;0.60;;;23.20;69.90;;;;;;5019470;28;20057;-78
2023/06/21 09:15:16;;;;;;;0.50;0.50;;;23.20;69.80;;;;;;5023246;28;20044;-78
2023/06/21 09:17:42;;;;;;;0.60;0.60;;;23.20;69.80;;;;;;5022755;28;20054;-78
2023/06/21 09:20:08;;;;;;;0.50;0.50;;;23.30;69.80;;;;;;5004112;28;20037;-78
2023/06/21 09:22:34;;;;;;;0.50;0.50;;;23.30;69.80;;;;;;5005126;28;20120;-78
2023/06/21 09:25:00;;;;;;;0.77;0.75;;;23.30;69.80;;;;;;5006966;28;20041;-78
2023/06/21 09:27:26;;;;;;;0.75;0.75;;;23.30;69.80;;;;;;5006044;28;20145;-78
2023/06/21 09:29:51;;;;;;;0.60;0.60;;;23.30;69.80;;;;;;5021526;28;20337;-78
2023/06/21 09:32:17;;;;;;;0.40;0.40;;;23.30;69.70;;;;;;5007607;28;20068;-78
2023/06/21 09:34:42;;;;;;;0.80;0.80;;;23.30;69.60;;;;;;5006765;28;20050;-78
2023/06/21 09:37:08;;;;;;;0.70;0.70;;;23.30;69.60;;;;;;5018744;28;20466;-78
2023/06/21 09:39:33;;;;;;;0.57;0.57;;;23.30;69.50;;;;;;5005587;28;20041;-78
2023/06/21 09:41:59;;;;;;;0.60;0.60;;;23.30;69.50;;;;;;5007520;28;20591;-78
2023/06/21 09:44:24;;;;;;;0.70;0.70;;;23.30;69.50;;;;;;5005898;28;20042;-78
2023/06/21 09:46:57;;;;;;;0.60;0.60;;;23.40;69.50;;;;;;5003676;28;20181;-78
2023/06/21 09:49:27;;;;;;;0.60;0.60;;;23.40;69.40;;;;;;5004480;28;20057;-78
2023/06/21 09:51:53;;;;;;;0.60;0.60;;;23.40;69.40;;;;;;5020682;28;20050;-78
2023/06/21 09:54:19;;;;;;;0.50;0.50;;;23.40;69.30;;;;;;5006025;28;20526;-78
2023/06/21 09:56:44;;;;;;;0.70;0.70;;;23.40;69.40;;;;;;5008078;28;20034;-78
2023/06/21 09:59:17;;;;;;;0.60;0.60;;;23.40;69.40;;;;;;5005906;28;20104;-78
2023/06/21 10:01:47;;;;;;;0.80;0.80;;;23.40;69.30;;;;;;5005266;28;20049;-79
2023/06/21 10:04:14;;;;;;;0.70;0.70;;;23.40;69.30;;;;;;5017359;28;20042;-78
2023/06/21 10:06:55;;;;;;;0.88;0.88;;;23.50;69.40;;;;;;5020620;28;20034;-78
2023/06/21 10:09:21;;;;;;;0.70;0.70;;;23.50;69.40;;;;;;5004103;28;20087;-78
2023/06/21 10:11:49;;;;;;;0.57;0.57;;;23.50;69.40;;;;;;5002792;28;20046;-79
2023/06/21 10:14:25;;;;;;;0.80;0.70;;;23.50;69.40;;;;;;5005783;28;20129;-79
2023/06/21 10:16:52;;;;;;;0.60;0.60;;;23.50;70.10;;;;;;5003960;28;20053;-78
2023/06/21 10:19:25;;;;;;;0.50;0.50;;;23.50;69.40;;;;;;4988589;28;20041;-78
2023/06/21 10:21:57;;;;;;;0.65;0.60;;;23.50;69.40;;;;;;5003376;28;20101;-78
2023/06/21 10:24:22;;;;;;;0.45;0.45;;;23.50;69.50;;;;;;5005739;28;20112;-78
2023/06/21 10:26:49;;;;;;;0.65;0.65;;;23.50;69.60;;;;;;5004265;28;20488;-78
2023/06/21 10:29:15;;;;;;;0.65;0.65;;;23.50;69.60;;;;;;5002777;28;20096;-78
2023/06/21 10:31:40;;;;;;;0.85;0.85;;;23.40;69.50;;;;;;5017334;28;20034;-78
2023/06/21 10:34:07;;;;;;;0.70;0.70;;;23.50;69.50;;;;;;5002434;28;20130;-78
2023/06/21 10:36:33;;;;;;;0.90;0.90;;;23.50;69.50;;;;;;5003160;28;20115;-78
2023/06/21 10:39:03;;;;;;;0.70;0.70;;;23.50;69.40;;;;;;5006945;28;20504;-78
2023/06/21 10:41:28;;;;;;;0.60;0.60;;;23.50;69.40;;;;;;4987455;28;21639;-78
2023/06/21 10:43:54;;;;;;;0.80;0.80;;;23.50;69.30;;;;;;5000520;28;20049;-78
2023/06/21 10:46:19;;;;;;;0.73;0.73;;;23.50;69.40;;;;;;4988340;28;20038;-78
2023/06/21 10:48:45;;;;;;;0.60;0.60;;;23.50;69.40;;;;;;5003957;28;20073;-79
2023/06/21 10:51:10;;;;;;;0.65;0.65;;;23.50;69.40;;;;;;5006055;28;20822;-78
2023/06/21 10:53:36;;;;;;;0.60;0.60;;;23.50;69.40;;;;;;5002562;28;20428;-78
2023/06/21 10:56:04;;;;;;;0.73;0.73;;;23.50;70.10;;;;;;5004775;28;20062;-78
2023/06/21 10:58:30;;;;;;;0.77;0.77;;;23.50;69.70;;;;;;5004573;28;20057;-78
2023/06/21 11:00:55;;;;;;;0.70;0.70;;;23.50;69.40;;;;;;5003064;28;20037;-78
2023/06/21 11:03:25;;;;;;;0.80;0.80;;;23.50;70.20;;;;;;5005739;28;20069;-78
2023/06/21 11:05:57;;;;;;;0.60;0.60;;;23.50;69.40;;;;;;5021400;28;20091;-78
2023/06/21 11:08:30;;;;;;;0.80;0.80;;;23.50;69.30;;;;;;5005370;28;20065;-78
2023/06/21 11:10:56;;;;;;;0.60;0.60;;;23.50;69.30;;;;;;5000581;28;20060;-78
2023/06/21 11:13:35;;;;;;;0.95;0.95;;;23.50;69.30;;;;;;5004874;28;20121;-78
2023/06/21 11:16:14;;;;;;;0.90;0.50;;;23.50;69.30;;;;;;5004565;28;20098;-78
2023/06/21 11:18:42;;;;;;;0.60;0.60;;;23.50;69.40;;;;;;5001665;28;20125;-78
2023/06/21 11:21:07;;;;;;;0.57;0.57;;;23.50;69.40;;;;;;5007017;28;20552;-78
2023/06/21 11:23:50;;;;;;;0.57;0.57;;;23.50;69.30;;;;;;5005080;28;20523;-79
2023/06/21 11:26:16;;;;;;;0.80;0.80;;;23.50;70.10;;;;;;5005320;28;20056;-78
2023/06/21 11:28:46;;;;;;;0.68;0.68;;;23.50;69.20;;;;;;5002456;28;20418;-78
2023/06/21 11:31:14;;;;;;;0.70;0.70;;;23.60;69.30;;;;;;5003291;28;20485;-77
2023/06/21 11:33:47;;;;;;;0.60;0.60;;;23.60;70.10;;;;;;5005894;28;20053;-78
2023/06/21 11:36:12;;;;;;;0.57;0.57;;;23.60;69.40;;;;;;5004907;28;20038;-78
2023/06/21 11:38:47;;;;;;;0.70;0.70;;;23.60;69.30;;;;;;5016136;28;20049;-79
2023/06/21 11:41:43;;;;;;;0.60;0.60;;;23.50;69.50;;;;;;5012064;28;20049;-77
2023/06/21 11:44:14;;;;;;;0.60;0.60;;;23.50;69.40;;;;;;5001990;28;20059;-78
2023/06/21 11:46:40;;;;;;;0.50;0.50;;;23.60;69.30;;;;;;5004252;28;20054;-79
2023/06/21 11:49:06;;;;;;;0.80;0.80;;;23.60;69.20;;;;;;5018120;28;20042;-78
2023/06/21 11:51:32;;;;;;;0.60;0.60;;;23.60;69.20;;;;;;5000184;28;20042;-79
2023/06/21 11:53:57;;;;;;;0.80;0.80;;;23.60;69.30;;;;;;5005466;28;20416;-79
2023/06/21 11:56:32;;;;;;;0.65;0.65;;;23.60;69.40;;;;;;5014529;28;20050;-78
2023/06/21 11:58:58;;;;;;;0.73;0.73;;;23.60;69.40;;;;;;5004753;28;20403;-79
2023/06/21 12:01:24;;;;;;;0.60;0.60;;;23.60;69.20;;;;;;5000359;28;20461;-79
2023/06/21 12:03:59;;;;;;;0.68;0.68;;;23.60;69.40;;;;;;5004186;28;20026;-78
2023/06/21 12:06:25;;;;;;;0.70;0.70;;;23.60;69.40;;;;;;5004791;28;20504;-79
2023/06/21 12:08:58;;;;;;;0.70;0.70;;;23.60;69.50;;;;;;5016882;28;20045;-79
2023/06/21 12:11:26;;;;;;;0.68;0.68;;;23.60;69.50;;;;;;5003419;28;20038;-79
2023/06/21 12:13:52;;;;;;;0.57;0.57;;;23.60;69.40;;;;;;5003960;28;20073;-79
2023/06/21 12:16:18;;;;;;;0.60;0.60;;;23.60;69.40;;;;;;5005277;28;20407;-78
2023/06/21 12:18:43;;;;;;;0.85;0.85;;;23.60;69.30;;;;;;5005464;28;20439;-79
2023/06/21 12:21:09;;;;;;;0.68;0.68;;;23.60;69.30;;;;;;5005278;28;20112;-79
2023/06/21 12:23:34;;;;;;;0.90;0.90;;;23.60;69.20;;;;;;5003663;28;20080;-79
2023/06/21 12:26:01;;;;;;;0.60;0.60;;;23.60;69.20;;;;;;5004970;28;20045;-79
2023/06/21 12:28:27;;;;;;;0.82;0.82;;;23.60;69.20;;;;;;5003993;28;20069;-78
2023/06/21 12:31:00;;;;;;;0.63;0.63;;;23.60;69.20;;;;;;5000782;28;20042;-79
2023/06/21 12:33:30;;;;;;;0.70;0.70;;;23.60;69.40;;;;;;5001364;28;21293;-79
2023/06/21 12:36:18;;;;;;;0.60;0.60;;;23.60;69.40;;;;;;5003615;28;20054;-79
2023/06/21 12:38:48;;;;;;;0.60;0.60;;;23.60;69.40;;;;;;5003429;28;20129;-79
2023/06/21 12:41:21;;;;;;;0.95;0.95;;;23.60;69.40;;;;;;4987895;28;20046;-79
2023/06/21 12:43:48;;;;;;;0.90;0.90;;;23.60;69.30;;;;;;5003031;28;20052;-79
2023/06/21 12:46:14;;;;;;;0.73;0.73;;;23.70;69.30;;;;;;5003298;28;20042;-78
2023/06/21 12:48:53;;;;;;;1.00;1.00;;;23.70;69.30;;;;;;5001934;28;20104;-79